createdAt,value
2017-10-06T00:01:04.279Z,11.30
2017-10-06T00:03:31.836Z,11.30
2017-10-06T00:05:59.568Z,11.30
2017-10-06T00:08:27.463Z,11.30
2017-10-06T00:10:55.052Z,11.30
2017-10-06T00:13:22.618Z,11.30
2017-10-06T00:15:51.258Z,11.30
2017-10-06T00:18:18.821Z,11.30
2017-10-06T00:20:46.387Z,11.40
2017-10-06T00:23:14.247Z,11.40
2017-10-06T00:25:41.798Z,11.40
2017-10-06T00:28:09.341Z,11.40
2017-10-06T00:30:37.236Z,11.40
2017-10-06T00:33:04.795Z,11.50
2017-10-06T00:35:32.363Z,11.50
2017-10-06T00:37:59.984Z,11.40
2017-10-06T00:40:27.533Z,11.40
2017-10-06T00:42:55.083Z,11.40
2017-10-06T00:45:22.686Z,11.40
2017-10-06T00:47:50.242Z,11.40
2017-10-06T00:50:17.794Z,11.50
2017-10-06T00:52:45.420Z,11.50
2017-10-06T00:55:13.743Z,11.50
2017-10-06T00:57:41.307Z,11.50
2017-10-06T01:00:08.927Z,11.50
2017-10-06T01:02:36.482Z,11.50
2017-10-06T01:05:04.808Z,11.50
2017-10-06T01:07:32.418Z,11.50
2017-10-06T01:10:00.721Z,11.50
2017-10-06T01:12:28.307Z,11.50
2017-10-06T01:14:55.941Z,11.50
2017-10-06T01:17:23.491Z,11.50
2017-10-06T01:19:51.042Z,11.50
2017-10-06T01:22:18.959Z,11.50
2017-10-06T01:24:46.516Z,11.50
2017-10-06T01:27:14.083Z,11.50
2017-10-06T01:29:41.685Z,11.50
2017-10-06T01:32:09.224Z,11.40
2017-10-06T01:34:37.544Z,11.40
2017-10-06T01:37:05.330Z,11.40
2017-10-06T01:39:32.895Z,11.40
2017-10-06T01:42:00.464Z,11.40
2017-10-06T01:44:28.149Z,11.40
2017-10-06T01:46:56.491Z,11.40
2017-10-06T01:49:24.052Z,11.40
2017-10-06T01:51:52.079Z,11.40
2017-10-06T01:54:19.645Z,11.30
2017-10-06T01:56:47.198Z,11.20
2017-10-06T01:59:15.115Z,11.20
2017-10-06T02:01:42.671Z,11.10
2017-10-06T02:04:10.214Z,11.00
2017-10-06T02:06:38.094Z,11.00
2017-10-06T02:09:05.668Z,10.90
2017-10-06T02:11:33.370Z,10.90
2017-10-06T02:14:01.231Z,10.90
2017-10-06T02:16:28.786Z,10.90
2017-10-06T02:18:57.098Z,10.90
2017-10-06T02:21:25.042Z,10.90
2017-10-06T02:23:52.602Z,10.90
2017-10-06T02:26:20.162Z,10.90
2017-10-06T02:28:48.274Z,10.80
2017-10-06T02:31:15.830Z,10.80
2017-10-06T02:33:43.380Z,10.80
2017-10-06T02:36:11.276Z,10.80
2017-10-06T02:38:38.839Z,10.80
2017-10-06T02:41:06.394Z,10.80
2017-10-06T02:43:34.462Z,10.80
2017-10-06T02:46:02.031Z,10.80
2017-10-06T02:48:29.589Z,10.80
2017-10-06T02:50:57.211Z,10.80
2017-10-06T02:53:24.762Z,10.80
2017-10-06T02:55:52.312Z,10.80
2017-10-06T02:58:19.932Z,10.80
2017-10-06T03:00:47.496Z,10.80
2017-10-06T03:03:15.020Z,10.80
2017-10-06T03:05:43.010Z,10.80
2017-10-06T03:08:10.675Z,10.90
2017-10-06T03:10:38.247Z,10.90
2017-10-06T03:13:05.898Z,10.90
2017-10-06T03:15:33.455Z,10.90
2017-10-06T03:18:01.009Z,10.90
2017-10-06T03:20:28.815Z,10.90
2017-10-06T03:22:56.392Z,11.00
2017-10-06T03:25:23.975Z,10.90
2017-10-06T03:27:51.593Z,10.90
2017-10-06T03:30:19.912Z,10.80
2017-10-06T03:32:47.473Z,10.80
2017-10-06T03:35:15.550Z,10.80
2017-10-06T03:37:43.107Z,10.80
2017-10-06T03:40:10.642Z,10.80
2017-10-06T03:42:38.252Z,10.70
2017-10-06T03:45:05.818Z,10.80
2017-10-06T03:47:33.377Z,10.70
2017-10-06T03:50:03.206Z,10.70
2017-10-06T03:52:31.514Z,10.80
2017-10-06T03:54:59.056Z,10.70
2017-10-06T03:57:26.979Z,10.80
2017-10-06T03:59:54.546Z,10.80
2017-10-06T04:02:22.091Z,10.80
2017-10-06T04:04:50.155Z,10.80
2017-10-06T04:07:17.879Z,10.80
2017-10-06T04:09:45.515Z,10.80
2017-10-06T04:12:14.175Z,10.80
2017-10-06T04:14:41.734Z,10.80
2017-10-06T04:17:09.299Z,10.80
2017-10-06T04:19:37.692Z,10.90
2017-10-06T04:22:06.012Z,10.80
2017-10-06T04:24:33.583Z,10.80
2017-10-06T04:27:01.203Z,10.80
2017-10-06T04:29:29.683Z,10.70
2017-10-06T04:31:58.036Z,10.80
2017-10-06T04:34:26.810Z,10.80
2017-10-06T04:36:54.358Z,10.70
2017-10-06T04:39:21.922Z,10.70
2017-10-06T04:41:49.763Z,10.70
2017-10-06T04:44:17.338Z,10.70
2017-10-06T04:46:44.886Z,10.80
2017-10-06T04:49:12.754Z,10.70
2017-10-06T04:51:40.310Z,10.80
2017-10-06T04:54:07.915Z,10.80
2017-10-06T04:56:35.771Z,10.80
2017-10-06T04:59:03.332Z,10.80
2017-10-06T05:01:31.084Z,10.80
2017-10-06T05:03:58.692Z,10.80
2017-10-06T05:06:27.008Z,10.80
2017-10-06T05:08:54.559Z,10.80
2017-10-06T05:11:22.467Z,10.70
2017-10-06T05:13:50.019Z,10.70
2017-10-06T05:16:17.583Z,10.70
2017-10-06T05:18:45.455Z,10.60
2017-10-06T05:21:13.002Z,10.70
2017-10-06T05:23:40.563Z,10.70
2017-10-06T05:26:08.168Z,10.70
2017-10-06T05:28:35.865Z,10.70
2017-10-06T05:31:03.426Z,10.60
2017-10-06T05:33:31.044Z,10.60
2017-10-06T05:35:59.367Z,10.70
2017-10-06T05:38:26.951Z,10.60
2017-10-06T05:40:55.006Z,10.70
2017-10-06T05:43:22.556Z,10.80
2017-10-06T05:45:50.184Z,10.80
2017-10-06T05:48:17.907Z,10.80
2017-10-06T05:50:45.510Z,10.70
2017-10-06T05:53:13.155Z,10.70
2017-10-06T05:55:41.546Z,10.60
2017-10-06T05:58:09.095Z,10.60
2017-10-06T06:00:37.408Z,10.60
2017-10-06T06:03:05.003Z,10.60
2017-10-06T06:05:32.562Z,10.60
2017-10-06T06:08:00.104Z,10.70
2017-10-06T06:10:27.956Z,10.70
2017-10-06T06:12:55.500Z,10.80
2017-10-06T06:15:23.062Z,10.80
2017-10-06T06:17:50.667Z,10.90
2017-10-06T06:20:18.365Z,11.00
2017-10-06T06:22:45.910Z,11.00
2017-10-06T06:25:14.550Z,11.00
2017-10-06T06:27:42.102Z,11.00
2017-10-06T06:30:09.662Z,11.00
2017-10-06T06:32:37.274Z,11.00
2017-10-06T06:35:04.847Z,11.10
2017-10-06T06:37:32.485Z,11.10
2017-10-06T06:40:00.870Z,11.20
2017-10-06T06:42:28.418Z,11.20
2017-10-06T06:44:55.966Z,11.20
2017-10-06T06:47:23.811Z,11.30
2017-10-06T06:49:51.552Z,11.30
2017-10-06T06:52:19.111Z,11.30
2017-10-06T06:54:48.137Z,11.40
2017-10-06T06:57:15.687Z,11.40
2017-10-06T06:59:43.246Z,11.40
2017-10-06T07:02:10.859Z,11.50
2017-10-06T07:04:38.593Z,11.60
2017-10-06T07:07:06.149Z,11.60
2017-10-06T07:09:33.760Z,11.70
2017-10-06T07:12:01.354Z,11.70
2017-10-06T07:14:28.912Z,11.90
2017-10-06T07:16:56.511Z,11.80
2017-10-06T07:19:24.835Z,12.00
2017-10-06T07:21:52.539Z,12.00
2017-10-06T07:24:21.643Z,12.20
2017-10-06T07:26:49.259Z,12.20
2017-10-06T07:29:16.842Z,12.30
2017-10-06T07:31:44.405Z,12.30
2017-10-06T07:34:12.339Z,12.40
2017-10-06T07:36:39.888Z,12.50
2017-10-06T07:39:07.439Z,12.50
2017-10-06T07:41:35.060Z,12.60
2017-10-06T07:44:02.624Z,12.60
2017-10-06T07:46:30.380Z,12.60
2017-10-06T07:48:57.934Z,12.60
2017-10-06T07:51:25.483Z,12.60
2017-10-06T07:53:53.247Z,12.60
2017-10-06T07:56:20.823Z,12.60
2017-10-06T07:58:48.434Z,12.50
2017-10-06T08:01:16.010Z,12.60
2017-10-06T08:03:43.565Z,12.60
2017-10-06T08:06:11.156Z,12.60
2017-10-06T08:08:38.713Z,12.60
2017-10-06T08:11:06.335Z,12.60
2017-10-06T08:13:33.893Z,12.80
2017-10-06T08:16:01.463Z,12.70
2017-10-06T08:18:29.061Z,12.70
2017-10-06T08:20:56.606Z,12.80
2017-10-06T08:23:24.583Z,12.80
2017-10-06T08:25:52.119Z,12.90
2017-10-06T08:28:19.672Z,12.90
2017-10-06T08:30:47.250Z,12.90
2017-10-06T08:33:14.805Z,12.90
2017-10-06T08:35:42.407Z,12.90
2017-10-06T08:38:09.958Z,12.90
2017-10-06T08:40:38.270Z,13.10
2017-10-06T08:43:05.863Z,13.10
2017-10-06T08:45:33.419Z,13.30
2017-10-06T08:48:01.018Z,13.50
2017-10-06T08:50:28.564Z,13.60
2017-10-06T08:52:56.134Z,13.60
2017-10-06T08:55:23.948Z,13.70
2017-10-06T08:57:51.508Z,13.60
2017-10-06T09:00:19.112Z,13.70
2017-10-06T09:02:46.660Z,13.70
2017-10-06T09:05:14.232Z,13.70
2017-10-06T09:07:41.823Z,13.60
2017-10-06T09:10:09.558Z,13.60
2017-10-06T09:12:38.315Z,13.50
2017-10-06T09:15:05.903Z,13.40
2017-10-06T09:17:34.376Z,13.50
2017-10-06T09:20:02.731Z,13.60
2017-10-06T09:22:30.302Z,13.60
2017-10-06T09:24:57.902Z,13.60
2017-10-06T09:27:25.481Z,13.70
2017-10-06T09:29:53.057Z,13.80
2017-10-06T09:32:20.670Z,13.80
2017-10-06T09:34:48.220Z,13.80
2017-10-06T09:37:16.927Z,13.90
2017-10-06T09:39:44.600Z,13.90
2017-10-06T09:42:12.175Z,13.90
2017-10-06T09:44:39.771Z,14.00
2017-10-06T09:47:07.320Z,14.00
2017-10-06T09:49:35.199Z,14.10
2017-10-06T09:52:02.951Z,14.00
2017-10-06T09:54:30.537Z,14.00
2017-10-06T09:56:58.143Z,14.00
2017-10-06T09:59:25.694Z,14.20
2017-10-06T10:01:53.456Z,14.30
2017-10-06T10:04:21.029Z,14.40
2017-10-06T10:06:48.585Z,14.70
2017-10-06T10:09:16.181Z,15.10
2017-10-06T10:11:43.732Z,15.20
2017-10-06T10:14:11.344Z,15.30
2017-10-06T10:16:38.916Z,15.40
2017-10-06T10:19:06.481Z,15.60
2017-10-06T10:21:34.066Z,15.50
2017-10-06T10:24:01.612Z,15.30
2017-10-06T10:26:29.206Z,15.10
2017-10-06T10:28:56.760Z,15.10
2017-10-06T10:31:24.306Z,15.00
2017-10-06T10:33:51.914Z,14.80
2017-10-06T10:36:20.243Z,14.60
2017-10-06T10:38:47.909Z,14.60
2017-10-06T10:41:15.458Z,14.50
2017-10-06T10:43:43.011Z,14.40
2017-10-06T10:46:10.622Z,14.30
2017-10-06T10:48:38.923Z,14.10
2017-10-06T10:51:06.612Z,14.10
2017-10-06T10:53:34.162Z,14.00
2017-10-06T10:56:01.786Z,13.90
2017-10-06T10:58:29.388Z,13.80
2017-10-06T11:00:56.939Z,13.70
2017-10-06T11:03:24.702Z,13.50
2017-10-06T11:05:52.358Z,13.50
2017-10-06T11:08:19.916Z,13.40
2017-10-06T11:10:47.516Z,13.30
2017-10-06T11:13:15.066Z,13.20
2017-10-06T11:15:43.148Z,13.10
2017-10-06T11:18:10.683Z,13.00
2017-10-06T11:20:38.236Z,12.90
2017-10-06T11:23:05.830Z,12.90
2017-10-06T11:25:33.374Z,12.80
2017-10-06T11:28:00.990Z,12.60
2017-10-06T11:30:28.576Z,12.50
2017-10-06T11:32:56.110Z,12.40
2017-10-06T11:35:23.702Z,12.40
2017-10-06T11:40:25.226Z,12.30
2017-10-06T11:42:52.800Z,12.60
2017-10-06T11:45:20.349Z,12.80
2017-10-06T11:47:48.041Z,13.00
2017-10-06T11:50:15.588Z,13.20
2017-10-06T11:52:43.467Z,13.20
2017-10-06T11:55:11.013Z,13.10
2017-10-06T11:57:38.562Z,13.00
2017-10-06T12:00:06.910Z,13.00
2017-10-06T12:02:34.468Z,13.00
2017-10-06T12:05:02.091Z,13.10
2017-10-06T12:07:29.657Z,13.30
2017-10-06T12:09:57.215Z,13.30
2017-10-06T12:12:24.791Z,13.30
2017-10-06T12:14:52.383Z,13.30
2017-10-06T12:17:21.046Z,13.50
2017-10-06T12:19:48.594Z,13.50
2017-10-06T12:22:16.135Z,13.50
2017-10-06T12:24:43.751Z,13.50
2017-10-06T12:27:11.476Z,13.60
2017-10-06T12:29:39.090Z,13.70
2017-10-06T12:32:06.658Z,13.70
2017-10-06T12:34:34.206Z,13.80
2017-10-06T12:37:01.801Z,13.80
2017-10-06T12:39:29.367Z,13.80
2017-10-06T12:41:56.950Z,13.80
2017-10-06T12:44:24.515Z,13.90
2017-10-06T12:46:52.131Z,13.90
2017-10-06T12:49:19.712Z,13.90
2017-10-06T12:51:47.277Z,13.80
2017-10-06T12:54:14.895Z,13.70
2017-10-06T12:56:42.485Z,13.60
2017-10-06T12:59:10.251Z,13.60
2017-10-06T13:01:37.934Z,13.60
2017-10-06T13:04:05.503Z,13.60
2017-10-06T13:06:33.109Z,13.50
2017-10-06T13:09:00.662Z,13.60
2017-10-06T13:11:28.230Z,13.60
2017-10-06T13:13:55.804Z,13.50
2017-10-06T13:16:23.370Z,13.50
2017-10-06T13:18:50.978Z,13.60
2017-10-06T13:21:19.293Z,13.50
2017-10-06T13:23:46.858Z,13.50
2017-10-06T13:26:14.450Z,13.50
2017-10-06T13:28:43.600Z,13.70
2017-10-06T13:31:11.228Z,13.70
2017-10-06T13:33:39.556Z,13.70
2017-10-06T13:36:07.106Z,13.70
2017-10-06T13:38:34.698Z,13.70
2017-10-06T13:41:02.267Z,13.60
2017-10-06T13:43:29.892Z,13.60
2017-10-06T13:45:57.441Z,13.50
2017-10-06T13:48:25.029Z,13.50
2017-10-06T13:50:52.627Z,13.50
2017-10-06T13:53:20.967Z,13.50
2017-10-06T13:55:48.571Z,13.50
2017-10-06T13:58:16.893Z,13.40
2017-10-06T14:00:44.498Z,13.40
2017-10-06T14:03:12.856Z,13.20
2017-10-06T14:05:40.428Z,13.20
2017-10-06T14:08:08.466Z,13.20
2017-10-06T14:10:36.022Z,13.10
2017-10-06T14:13:03.715Z,13.10
2017-10-06T14:15:31.326Z,13.20
2017-10-06T14:17:58.876Z,13.10
2017-10-06T14:20:26.552Z,13.00
2017-10-06T14:22:54.113Z,13.00
2017-10-06T14:25:21.688Z,13.00
2017-10-06T14:27:49.295Z,13.10
2017-10-06T14:30:17.629Z,13.10
2017-10-06T14:32:45.235Z,13.10
2017-10-06T14:35:13.552Z,13.00
2017-10-06T14:37:41.094Z,13.10
2017-10-06T14:40:08.751Z,13.10
2017-10-06T14:42:36.960Z,13.00
2017-10-06T14:45:04.569Z,13.00
2017-10-06T14:47:32.153Z,13.00
2017-10-06T14:49:59.699Z,12.90
2017-10-06T14:52:27.287Z,12.80
2017-10-06T14:54:54.861Z,12.70
2017-10-06T14:57:23.256Z,12.60
2017-10-06T14:59:52.329Z,12.30
2017-10-06T15:02:19.912Z,12.30
2017-10-06T15:04:47.535Z,12.20
2017-10-06T15:07:15.105Z,12.10
2017-10-06T15:09:43.101Z,12.00
2017-10-06T15:12:10.661Z,11.90
2017-10-06T15:14:38.231Z,11.80
2017-10-06T15:17:06.291Z,11.70
2017-10-06T15:19:33.944Z,11.70
2017-10-06T15:22:01.508Z,11.70
2017-10-06T15:24:29.116Z,11.60
2017-10-06T15:26:56.678Z,11.60
2017-10-06T15:29:24.294Z,11.60
2017-10-06T15:31:52.040Z,11.60
2017-10-06T15:34:19.634Z,11.70
2017-10-06T15:36:47.201Z,11.60
2017-10-06T15:39:15.685Z,11.60
2017-10-06T15:41:44.025Z,11.60
2017-10-06T15:44:11.620Z,11.60
2017-10-06T15:46:40.290Z,11.50
2017-10-06T15:49:07.863Z,11.50
2017-10-06T15:51:35.449Z,11.50
2017-10-06T15:54:03.142Z,11.50
2017-10-06T15:56:30.701Z,11.50
2017-10-06T15:58:58.249Z,11.50
2017-10-06T16:01:25.982Z,11.50
2017-10-06T16:03:53.565Z,11.50
2017-10-06T16:06:21.132Z,11.50
2017-10-06T16:08:48.765Z,11.50
2017-10-06T16:11:16.327Z,11.40
2017-10-06T16:13:43.891Z,11.40
2017-10-06T16:16:11.596Z,11.40
2017-10-06T16:18:39.147Z,11.40
2017-10-06T16:21:06.723Z,11.40
2017-10-06T16:23:34.331Z,11.30
2017-10-06T16:26:01.901Z,11.30
2017-10-06T16:28:29.451Z,11.30
2017-10-06T16:30:57.196Z,11.30
2017-10-06T16:33:24.764Z,11.30
2017-10-06T16:35:53.092Z,11.30
2017-10-06T16:38:20.711Z,11.30
2017-10-06T16:40:48.279Z,11.30
2017-10-06T16:43:15.847Z,11.40
2017-10-06T16:45:43.431Z,11.40
2017-10-06T16:48:10.992Z,11.40
2017-10-06T16:50:38.615Z,11.40
2017-10-06T16:53:06.185Z,11.40
2017-10-06T16:55:33.812Z,11.40
2017-10-06T16:58:01.424Z,11.40
2017-10-06T17:00:28.999Z,11.40
2017-10-06T17:02:56.644Z,11.40
2017-10-06T17:05:24.220Z,11.40
2017-10-06T17:07:51.851Z,11.40
2017-10-06T17:10:19.492Z,11.40
2017-10-06T17:12:47.072Z,11.40
2017-10-06T17:15:14.684Z,11.40
2017-10-06T17:17:42.240Z,11.50
2017-10-06T17:20:09.908Z,11.40
2017-10-06T17:22:38.301Z,11.40
2017-10-06T17:25:06.132Z,11.40
2017-10-06T17:27:34.106Z,11.40
2017-10-06T17:30:01.714Z,11.40
2017-10-06T17:32:29.308Z,11.40
2017-10-06T17:34:57.007Z,11.40
2017-10-06T17:37:24.602Z,11.40
2017-10-06T17:39:52.264Z,11.40
2017-10-06T17:42:19.915Z,11.40
2017-10-06T17:44:47.488Z,11.40
2017-10-06T17:47:15.104Z,11.40
2017-10-06T17:49:42.660Z,11.40
2017-10-06T17:52:10.282Z,11.40
2017-10-06T17:54:37.852Z,11.40
2017-10-06T17:57:05.454Z,11.40
2017-10-06T17:59:33.855Z,11.40
2017-10-06T18:02:01.451Z,11.40
2017-10-06T18:04:29.337Z,11.40
2017-10-06T18:06:56.940Z,11.40
2017-10-06T18:09:24.549Z,11.40
2017-10-06T18:11:52.205Z,11.40
2017-10-06T18:14:19.770Z,11.30
2017-10-06T18:16:47.427Z,11.30
2017-10-06T18:19:15.051Z,11.30
2017-10-06T18:21:42.627Z,11.40
2017-10-06T18:24:10.241Z,11.30
2017-10-06T18:26:37.818Z,11.30
2017-10-06T18:29:05.582Z,11.30
2017-10-06T18:31:34.011Z,11.30
2017-10-06T18:34:01.577Z,11.30
2017-10-06T18:36:29.176Z,11.30
2017-10-06T18:38:56.726Z,11.30
2017-10-06T18:41:25.107Z,11.20
2017-10-06T18:43:53.456Z,11.20
2017-10-06T18:46:21.056Z,11.20
2017-10-06T18:48:49.415Z,11.20
2017-10-06T18:51:16.983Z,11.30
2017-10-06T18:53:44.835Z,11.20
2017-10-06T18:56:12.395Z,11.30
2017-10-06T18:58:39.952Z,11.30
2017-10-06T19:01:07.572Z,11.30
2017-10-06T19:03:35.165Z,11.30
2017-10-06T19:06:03.863Z,11.20
2017-10-06T19:08:31.439Z,11.20
2017-10-06T19:10:59.003Z,11.20
2017-10-06T19:13:27.505Z,11.10
2017-10-06T19:15:55.065Z,11.00
2017-10-06T19:18:22.992Z,11.10
2017-10-06T19:20:50.569Z,11.10
2017-10-06T19:23:18.149Z,11.10
2017-10-06T19:25:45.880Z,11.00
2017-10-06T19:28:13.452Z,11.00
2017-10-06T19:30:41.830Z,11.00
2017-10-06T19:33:09.495Z,11.00
2017-10-06T19:35:37.872Z,11.10
2017-10-06T19:38:06.231Z,11.10
2017-10-06T19:40:33.799Z,11.10
2017-10-06T19:43:02.187Z,11.20
2017-10-06T19:45:29.758Z,11.20
2017-10-06T19:47:58.159Z,11.20
2017-10-06T19:50:25.755Z,11.20
2017-10-06T20:00:35.538Z,11.20
2017-10-06T20:03:03.120Z,11.30
2017-10-06T20:05:30.682Z,11.30
2017-10-06T20:13:04.139Z,11.40
2017-10-06T20:20:38.471Z,11.40
2017-10-06T20:23:07.686Z,11.40
2017-10-06T20:25:36.005Z,11.40
2017-10-06T20:35:42.336Z,11.50
2017-10-06T20:45:51.117Z,11.30
2017-10-06T20:48:18.687Z,11.30
2017-10-06T20:50:47.091Z,11.40
2017-10-06T20:53:15.442Z,11.40
2017-10-06T20:58:15.822Z,11.40
2017-10-06T21:00:43.377Z,11.40
2017-10-06T21:03:12.631Z,11.40
2017-10-06T21:05:40.196Z,11.40
2017-10-06T21:15:46.769Z,11.40
2017-10-06T21:20:47.152Z,11.30
2017-10-06T21:30:55.264Z,11.40
2017-10-06T21:33:22.844Z,11.40
2017-10-06T21:38:23.186Z,11.40
2017-10-06T21:40:50.769Z,11.50
2017-10-06T21:43:18.943Z,11.50
2017-10-06T21:45:46.548Z,11.50
2017-10-06T21:50:46.957Z,11.60
2017-10-06T21:53:14.516Z,11.60
2017-10-06T21:58:14.907Z,11.50
2017-10-06T22:00:42.517Z,11.50
2017-10-06T22:03:11.164Z,11.60
2017-10-06T22:15:50.619Z,11.50
2017-10-06T22:28:31.558Z,11.40
2017-10-06T22:33:32.456Z,11.30
2017-10-06T22:41:05.931Z,11.30
2017-10-06T22:43:33.655Z,11.30
2017-10-06T22:46:01.204Z,11.30
2017-10-06T22:48:28.792Z,11.20
2017-10-06T22:50:56.351Z,11.20
2017-10-06T23:03:37.154Z,11.30
2017-10-06T23:06:04.720Z,11.30
2017-10-06T23:11:05.078Z,11.40
2017-10-06T23:13:32.656Z,11.40
2017-10-06T23:16:00.255Z,11.40
2017-10-06T23:18:27.896Z,11.50
2017-10-06T23:20:55.748Z,11.50
2017-10-06T23:25:58.435Z,11.50
2017-10-06T23:30:59.310Z,11.60
2017-10-06T23:38:33.080Z,11.60
2017-10-06T23:46:09.946Z,11.50
2017-10-06T23:48:37.507Z,11.50
2017-10-06T23:51:05.071Z,11.50
